Time;durP1;ratioP1;P1;durP2;ratioP2;P2;SDS_P1;SDS_P2;PMS_P1;PMS_P2;Temp;Humidity;BMP_temperature;BMP_pressure;BME280_temperature;BME280_humidity;BME280_pressure;Samples;Min_cycle;Max_cycle;Signal;HPM_P1;HPM_P2
2022/06/14 00:02:57;;;;;;;;;;;;;;;15.84;89.12;98762.69;1766847;80;20092;-77
2022/06/14 00:05:23;;;;;;;;;;;;;;;15.79;89.52;98760.22;1766592;81;20072;-78
2022/06/14 00:07:50;;;;;;;;;;;;;;;15.75;89.63;98762.72;1766774;81;20112;-77
2022/06/14 00:10:18;;;;;;;;;;;;;;;15.72;89.77;98766.22;1766534;81;20073;-77
2022/06/14 00:12:44;;;;;;;;;;;;;;;15.68;89.90;98763.39;1766629;81;20760;-77
2022/06/14 00:15:11;;;;;;;;;;;;;;;15.64;90.01;98761.72;1766698;81;20119;-77
2022/06/14 00:17:37;;;;;;;;;;;;;;;15.59;90.36;98765.63;1748152;81;20423;-77
2022/06/14 00:20:05;;;;;;;;;;;;;;;15.54;90.71;98765.89;1766492;81;20327;-77
2022/06/14 00:22:33;;;;;;;;;;;;;;;15.48;90.85;98762.62;1766790;81;20152;-78
2022/06/14 00:24:59;;;;;;;;;;;;;;;15.44;91.25;98769.27;1766531;81;21774;-77
2022/06/14 00:27:26;;;;;;;;;;;;;;;15.40;91.56;98757.33;1766425;81;20081;-78
2022/06/14 00:29:53;;;;;;;;;;;;;;;15.39;91.72;98759.88;1766532;81;20080;-78
2022/06/14 00:32:20;;;;;;;;;;;;;;;15.37;91.72;98745.63;1766508;81;20461;-77
2022/06/14 00:34:47;;;;;;;;;;;;;;;15.34;91.82;98740.23;1766508;80;20072;-77
2022/06/14 00:37:17;;;;;;;;;;;;;;;15.31;91.96;98739.59;1766605;81;21772;-77
2022/06/14 00:39:44;;;;;;;;;;;;;;;15.28;92.14;98738.14;1766447;81;20120;-77
2022/06/14 00:42:21;;;;;;;;;;;;;;;15.26;92.31;98730.21;1786791;80;20079;-77
2022/06/14 00:45:02;;;;;;;;;;;;;;;15.24;92.42;98733.13;1793257;80;20091;-77
2022/06/14 00:47:32;;;;;;;;;;;;;;;15.23;92.76;98734.28;1793202;80;20084;-77
2022/06/14 00:50:00;;;;;;;;;;;;;;;15.20;92.90;98726.94;1793137;80;21164;-77
2022/06/14 00:52:36;;;;;;;;;;;;;;;15.18;93.01;98737.56;1793072;80;20080;-77
2022/06/14 00:55:27;;;;;;;;;;;;;;;15.16;93.16;98733.57;1793198;80;20080;-77
2022/06/14 00:57:59;;;;;;;;;;;;;;;15.13;93.40;98729.57;1747984;81;20110;-77
2022/06/14 01:00:31;;;;;;;;;;;;;;;15.10;93.41;98720.63;1760871;81;20112;-77
2022/06/14 01:03:00;;;;;;;;;;;;;;;15.08;93.62;98722.16;1760672;81;21154;-77
2022/06/14 01:06:05;;;;;;;;;;;;;;;15.04;93.64;98723.47;1760823;81;20093;-77
2022/06/14 01:08:05;;;;;;;;;;;;;;;14.99;93.83;98716.88;1758149;81;20080;-77
2022/06/14 01:10:32;;;;;;;;;;;;;;;14.97;94.09;98717.03;1760782;81;20108;-77
2022/06/14 01:13:01;;;;;;;;;;;;;;;14.94;94.16;98718.55;1761073;80;20092;-77
2022/06/14 01:15:31;;;;;;;;;;;;;;;14.91;94.19;98724.81;1760779;81;21100;-77
2022/06/14 01:18:07;;;;;;;;;;;;;;;14.89;94.18;98719.43;1741562;81;39759;-77
2022/06/14 01:20:35;;;;;;;;;;;;;;;14.86;94.17;98719.58;1760878;81;20096;-77
2022/06/14 01:23:03;;;;;;;;;;;;;;;14.78;94.20;98725.54;1760735;81;20152;-77
2022/06/14 01:25:30;;;;;;;;;;;;;;;14.74;94.56;98728.81;1761099;81;20092;-77
2022/06/14 01:27:58;;;;;;;;;;;;;;;14.71;94.80;98735.06;1760763;81;21158;-77
2022/06/14 01:30:27;;;;;;;;;;;;;;;14.68;95.15;98731.64;1760791;81;20404;-77
2022/06/14 01:32:57;;;;;;;;;;;;;;;14.65;95.06;98733.74;1760609;81;20113;-77
2022/06/14 01:35:25;;;;;;;;;;;;;;;14.63;95.25;98729.74;1760784;81;20105;-77
2022/06/14 01:37:53;;;;;;;;;;;;;;;14.61;95.08;98730.10;1760800;81;20431;-78
2022/06/14 01:40:29;;;;;;;;;;;;;;;14.59;95.08;98728.28;1760766;81;21556;-77
2022/06/14 01:43:03;;;;;;;;;;;;;;;14.55;95.01;98727.41;1760724;81;20081;-78
2022/06/14 01:45:57;;;;;;;;;;;;;;;14.52;95.39;98723.98;1759406;81;20108;-77
2022/06/14 01:48:27;;;;;;;;;;;;;;;14.49;95.44;98719.98;1694811;81;20420;-77
2022/06/14 01:54:10;;;;;;;;;;;;;;;14.46;95.87;98722.67;1760863;81;21157;-77
2022/06/14 01:56:49;;;;;;;;;;;;;;;14.44;96.00;98711.22;1760732;81;20092;-78
2022/06/14 01:59:31;;;;;;;;;;;;;;;14.44;96.29;98714.75;1760746;81;20105;-78
2022/06/14 02:02:08;;;;;;;;;;;;;;;14.44;96.32;98713.98;1761144;81;20444;-78
2022/06/14 02:04:47;;;;;;;;;;;;;;;14.43;96.48;98710.41;1760944;80;20436;-78
2022/06/14 02:07:35;;;;;;;;;;;;;;;14.44;96.67;98708.45;1760821;81;21160;-77
2022/06/14 02:10:17;;;;;;;;;;;;;;;14.43;96.87;98709.61;1760691;81;20081;-78
2022/06/14 02:12:49;;;;;;;;;;;;;;;14.43;96.99;98708.23;1760857;81;20148;-78
2022/06/14 02:15:19;;;;;;;;;;;;;;;14.40;97.08;98697.30;1760702;81;20113;-77
2022/06/14 02:17:50;;;;;;;;;;;;;;;14.40;97.37;98705.58;1760853;81;20093;-77
2022/06/14 02:20:22;;;;;;;;;;;;;;;14.41;97.77;98700.86;1760818;80;20097;-78
2022/06/14 02:22:52;;;;;;;;;;;;;;;14.44;98.01;98696.80;1760823;81;20085;-78
2022/06/14 02:25:25;;;;;;;;;;;;;;;14.48;98.21;98699.05;1740754;81;20161;-77
2022/06/14 02:27:55;;;;;;;;;;;;;;;14.50;98.28;98700.88;1760790;81;20124;-78
2022/06/14 02:30:24;;;;;;;;;;;;;;;14.50;98.37;98695.34;1761061;80;20104;-78
2022/06/14 02:33:05;;;;;;;;;;;;;;;14.50;98.60;98696.73;1741598;81;21845;-78
2022/06/14 02:35:41;;;;;;;;;;;;;;;14.54;98.72;98694.84;1760873;81;20117;-78
2022/06/14 02:38:15;;;;;;;;;;;;;;;14.56;98.82;98696.45;1745268;81;20105;-78
2022/06/14 02:40:48;;;;;;;;;;;;;;;14.56;98.91;98700.59;1760716;81;20461;-77
2022/06/14 02:43:19;;;;;;;;;;;;;;;14.59;99.14;98695.72;1766537;80;20096;-77
2022/06/14 02:46:01;;;;;;;;;;;;;;;14.64;99.43;98699.58;1764707;81;21748;-77
2022/06/14 02:48:46;;;;;;;;;;;;;;;14.68;99.67;98715.06;1744695;81;20420;-77
2022/06/14 02:51:19;;;;;;;;;;;;;;;14.74;99.58;98758.39;1764963;81;20089;-78
2022/06/14 02:53:55;;;;;;;;;;;;;;;14.75;99.15;98763.56;1764626;81;20370;-77
2022/06/14 02:56:29;;;;;;;;;;;;;;;14.86;99.46;98763.78;1764647;81;20443;-78
2022/06/14 02:59:00;;;;;;;;;;;;;;;15.18;99.37;98769.36;1764618;81;20080;-78
2022/06/14 03:01:30;;;;;;;;;;;;;;;15.50;98.12;98758.91;1764817;81;20072;-78
2022/06/14 03:04:02;;;;;;;;;;;;;;;15.82;95.35;98769.17;1764643;81;20080;-77
2022/06/14 03:06:42;;;;;;;;;;;;;;;16.15;92.56;98766.36;1765101;81;20117;-78
2022/06/14 03:09:22;;;;;;;;;;;;;;;16.45;91.24;98778.86;1764643;80;20088;-77
2022/06/14 03:12:27;;;;;;;;;;;;;;;16.70;88.77;98776.48;1799986;79;21105;-77
2022/06/14 03:15:07;;;;;;;;;;;;;;;16.89;85.84;98772.74;1799997;79;20107;-78
2022/06/14 03:18:00;;;;;;;;;;;;;;;17.04;85.11;98779.48;1775547;79;20103;-78
2022/06/14 03:20:30;;;;;;;;;;;;;;;17.14;84.64;98784.95;1800044;79;20295;-78
2022/06/14 03:23:18;;;;;;;;;;;;;;;17.22;83.26;98787.23;1802505;79;20084;-78
2022/06/14 03:26:13;;;;;;;;;;;;;;;17.26;83.41;98793.03;1802359;79;21254;-78
2022/06/14 03:28:47;;;;;;;;;;;;;;;17.29;83.47;98805.34;1802174;79;20115;-78
2022/06/14 03:31:23;;;;;;;;;;;;;;;17.30;82.73;98805.55;1802368;79;20107;-77
2022/06/14 03:34:06;;;;;;;;;;;;;;;17.30;82.88;98813.88;1802175;79;20111;-77
2022/06/14 03:36:34;;;;;;;;;;;;;;;17.31;83.33;98816.86;1802278;79;20116;-77
2022/06/14 03:39:16;;;;;;;;;;;;;;;17.37;83.06;98811.95;1802567;79;21076;-77
2022/06/14 03:41:44;;;;;;;;;;;;;;;17.40;83.32;98825.66;1800254;79;20088;-77
2022/06/14 03:44:11;;;;;;;;;;;;;;;17.43;83.28;98823.52;1793147;80;20144;-77
2022/06/14 03:46:41;;;;;;;;;;;;;;;17.47;83.26;98840.41;1793225;80;20210;-77
2022/06/14 03:49:17;;;;;;;;;;;;;;;17.51;83.16;98854.33;1793070;80;20459;-77
2022/06/14 03:52:13;;;;;;;;;;;;;;;17.48;83.16;98872.53;1792082;80;21111;-78
2022/06/14 03:54:50;;;;;;;;;;;;;;;17.39;83.44;98878.95;1793203;80;20096;-78
2022/06/14 03:57:24;;;;;;;;;;;;;;;17.30;84.60;98877.09;1793587;80;20423;-77
2022/06/14 03:59:57;;;;;;;;;;;;;;;17.29;85.65;98887.17;1793245;80;20092;-77
2022/06/14 04:02:53;;;;;;;;;;;;;;;17.29;86.02;98885.78;1793346;80;20119;-78
2022/06/14 04:05:06;;;;;;;;;;;;;;;17.26;86.08;98890.70;1788757;80;21098;-78
2022/06/14 04:07:45;;;;;;;;;;;;;;;17.22;86.50;98881.53;1793521;80;20092;-77
2022/06/14 04:10:20;;;;;;;;;;;;;;;17.18;86.83;98890.39;1793154;80;20088;-78
2022/06/14 04:13:12;;;;;;;;;;;;;;;17.12;87.00;98881.00;1792404;80;20080;-77
2022/06/14 04:16:07;;;;;;;;;;;;;;;17.07;87.12;98894.39;1793328;80;20077;-78
2022/06/14 04:18:52;;;;;;;;;;;;;;;16.98;87.40;98896.05;1793521;80;21697;-77
2022/06/14 04:21:34;;;;;;;;;;;;;;;16.95;87.96;98910.66;1793671;80;20080;-77
2022/06/14 04:24:11;;;;;;;;;;;;;;;16.89;88.48;98914.92;1793191;80;20132;-78
2022/06/14 04:26:42;;;;;;;;;;;;;;;16.86;88.88;98932.30;1793186;80;20586;-78
2022/06/14 04:29:23;;;;;;;;;;;;;;;16.80;88.93;98929.62;1793239;80;20081;-78
2022/06/14 04:32:10;;;;;;;;;;;;;;;16.80;89.31;98935.17;1793276;80;21116;-78
2022/06/14 04:34:58;;;;;;;;;;;;;;;16.82;89.33;98935.60;1761754;81;20138;-77
2022/06/14 04:37:40;;;;;;;;;;;;;;;16.84;88.95;98926.33;1760857;80;20092;-78
2022/06/14 04:40:13;;;;;;;;;;;;;;;16.90;88.70;98929.00;1761101;81;20092;-77
2022/06/14 04:42:55;;;;;;;;;;;;;;;16.97;88.36;98922.77;1763593;80;20129;-77
2022/06/14 04:45:25;;;;;;;;;;;;;;;17.03;88.21;98922.66;1764630;81;21120;-77
2022/06/14 04:48:10;;;;;;;;;;;;;;;17.11;88.15;98917.43;1763763;80;21325;-77
2022/06/14 04:50:43;;;;;;;;;;;;;;;17.20;87.38;98939.34;1764872;81;20096;-78
2022/06/14 04:53:21;;;;;;;;;;;;;;;17.25;86.74;98939.02;1764661;81;20112;-77
2022/06/14 04:56:01;;;;;;;;;;;;;;;17.28;87.01;98942.44;1764905;81;20080;-77
2022/06/14 04:58:37;;;;;;;;;;;;;;;17.26;85.94;98945.58;1764578;81;21247;-78
2022/06/14 05:01:10;;;;;;;;;;;;;;;17.19;85.44;98955.19;1764890;81;20080;-82
2022/06/14 05:03:43;;;;;;;;;;;;;;;17.09;84.95;98959.40;1764537;81;20080;-78
2022/06/14 05:06:12;;;;;;;;;;;;;;;17.04;84.09;98950.59;1764574;81;20303;-78
2022/06/14 05:08:47;;;;;;;;;;;;;;;17.05;83.89;98966.06;1764641;81;20432;-79
2022/06/14 05:11:32;;;;;;;;;;;;;;;17.11;83.41;98968.15;1764248;80;21213;-80
2022/06/14 05:14:06;;;;;;;;;;;;;;;17.21;82.63;98971.45;1764585;80;20080;-78
2022/06/14 05:16:39;;;;;;;;;;;;;;;17.29;81.22;98978.71;1769016;79;20475;-74
2022/06/14 05:19:15;;;;;;;;;;;;;;;17.32;80.61;98968.25;1799556;79;20109;-75
2022/06/14 05:21:46;;;;;;;;;;;;;;;17.32;79.92;98975.98;1770663;81;20097;-76
2022/06/14 05:24:13;;;;;;;;;;;;;;;17.33;80.21;98989.27;1775621;79;21799;-76
2022/06/14 05:27:16;;;;;;;;;;;;;;;17.35;79.36;98985.51;1770802;81;20086;-76
2022/06/14 05:30:03;;;;;;;;;;;;;;;17.37;80.07;98985.94;1770523;81;20453;-75
2022/06/14 05:32:55;;;;;;;;;;;;;;;17.41;80.18;98986.20;1802030;79;20116;-76
2022/06/14 05:35:37;;;;;;;;;;;;;;;17.42;78.20;99002.26;1692260;83;20122;-78
2022/06/14 05:38:33;;;;;;;;;;;;;;;17.31;78.99;98997.97;1757497;81;21089;-76
2022/06/14 05:41:15;;;;;;;;;;;;;;;17.24;79.34;99022.02;1802284;79;20443;-76
2022/06/14 05:43:45;;;;;;;;;;;;;;;17.08;79.93;99035.45;1776144;80;20116;-81
2022/06/14 05:46:25;;;;;;;;;;;;;;;16.89;81.04;99051.34;1765577;81;20551;-78
2022/06/14 05:48:56;;;;;;;;;;;;;;;16.64;82.33;99059.20;1768000;81;20103;-79
2022/06/14 05:51:29;;;;;;;;;;;;;;;16.47;83.66;99061.28;1769218;81;21819;-78
2022/06/14 05:53:59;;;;;;;;;;;;;;;16.35;85.60;99059.25;1768995;81;20471;-77
2022/06/14 05:56:34;;;;;;;;;;;;;;;16.28;88.13;99065.44;1792906;80;20092;-77
2022/06/14 05:59:17;;;;;;;;;;;;;;;16.18;89.40;99068.80;1793383;80;20107;-77
2022/06/14 06:01:53;;;;;;;;;;;;;;;16.02;92.29;99073.63;1792634;80;20111;-78
2022/06/14 06:04:28;;;;;;;;;;;;;;;15.83;94.03;99077.97;1793044;80;20873;-77
2022/06/14 06:07:00;;;;;;;;;;;;;;;15.75;96.62;99080.94;1795973;80;20089;-77
2022/06/14 06:09:30;;;;;;;;;;;;;;;15.68;97.63;99080.78;1766245;81;20092;-77
2022/06/14 06:12:00;;;;;;;;;;;;;;;15.63;98.13;99079.09;1767127;80;20080;-76
2022/06/14 06:14:36;;;;;;;;;;;;;;;15.60;98.77;99065.98;1783639;80;20407;-77
2022/06/14 06:17:09;;;;;;;;;;;;;;;15.58;98.67;99080.78;1787011;80;21117;-78
2022/06/14 06:19:59;;;;;;;;;;;;;;;15.61;99.93;99063.44;1820251;78;20082;-77
2022/06/14 06:22:47;;;;;;;;;;;;;;;15.70;100.00;99068.77;1820420;79;20113;-78
2022/06/14 06:25:16;;;;;;;;;;;;;;;15.81;99.59;99087.22;1820325;79;20090;-78
2022/06/14 06:27:46;;;;;;;;;;;;;;;15.89;99.09;99085.99;1820359;79;20113;-77
2022/06/14 06:30:17;;;;;;;;;;;;;;;15.96;99.32;99091.69;1819527;79;21125;-77
2022/06/14 06:32:44;;;;;;;;;;;;;;;16.06;99.24;99093.88;1819931;78;20106;-77
2022/06/14 06:35:10;;;;;;;;;;;;;;;16.14;98.03;99099.80;1820750;79;20078;-76
2022/06/14 06:37:41;;;;;;;;;;;;;;;16.15;98.00;99090.32;1820843;79;20194;-77
2022/06/14 06:40:19;;;;;;;;;;;;;;;16.25;98.23;99097.22;1820562;79;20110;-77
2022/06/14 06:43:05;;;;;;;;;;;;;;;16.39;98.76;99101.09;1820891;78;21145;-79
2022/06/14 06:45:35;;;;;;;;;;;;;;;16.60;96.60;99099.91;1823368;78;20117;-78
2022/06/14 06:48:11;;;;;;;;;;;;;;;16.75;95.31;99110.13;1823637;78;20209;-78
2022/06/14 06:50:49;;;;;;;;;;;;;;;16.85;95.61;99112.27;1823655;78;20102;-79
2022/06/14 06:53:19;;;;;;;;;;;;;;;16.97;93.86;99115.45;1823637;78;20457;-79
2022/06/14 06:55:57;;;;;;;;;;;;;;;17.01;92.40;99112.97;1823277;78;21822;-77
2022/06/14 06:58:32;;;;;;;;;;;;;;;17.07;91.81;99121.78;1796553;78;20081;-76
2022/06/14 07:01:02;;;;;;;;;;;;;;;17.15;88.55;99124.31;1823649;78;20438;-76
2022/06/14 07:03:50;;;;;;;;;;;;;;;17.24;86.43;99130.20;1823854;78;20109;-76
2022/06/14 07:06:26;;;;;;;;;;;;;;;17.35;85.85;99128.38;1823644;78;20110;-77
2022/06/14 07:08:58;;;;;;;;;;;;;;;17.38;85.37;99139.55;1823747;78;20425;-77
2022/06/14 07:11:28;;;;;;;;;;;;;;;17.31;82.57;99138.65;1823573;78;20109;-77
2022/06/14 07:13:57;;;;;;;;;;;;;;;17.23;83.11;99148.82;1812603;78;20090;-76
2022/06/14 07:16:33;;;;;;;;;;;;;;;17.15;82.62;99150.66;1795600;78;20121;-77
2022/06/14 07:19:22;;;;;;;;;;;;;;;17.10;82.78;99153.73;1800922;78;20086;-77
2022/06/14 07:22:05;;;;;;;;;;;;;;;17.06;81.30;99143.17;1819995;78;21159;-77
2022/06/14 07:24:35;;;;;;;;;;;;;;;17.02;81.67;99154.78;1780165;78;20069;-77
2022/06/14 07:27:06;;;;;;;;;;;;;;;16.99;80.34;99162.45;1829920;78;20093;-77
2022/06/14 07:29:42;;;;;;;;;;;;;;;17.01;80.48;99167.63;1831933;78;20593;-77
2022/06/14 07:32:32;;;;;;;;;;;;;;;17.03;80.46;99170.25;1831758;78;20433;-77
2022/06/14 07:34:59;;;;;;;;;;;;;;;17.06;79.86;99177.03;1767327;81;21123;-78
2022/06/14 07:37:47;;;;;;;;;;;;;;;17.10;79.21;99168.99;1767155;81;20437;-78
2022/06/14 07:40:20;;;;;;;;;;;;;;;17.15;79.03;99169.27;1801040;78;20108;-78
2022/06/14 07:42:52;;;;;;;;;;;;;;;17.35;79.09;99167.22;1827133;78;20432;-77
2022/06/14 07:45:22;;;;;;;;;;;;;;;17.64;77.62;99166.53;1763308;81;20106;-76
2022/06/14 07:47:58;;;;;;;;;;;;;;;17.91;76.27;99177.70;1761447;81;21128;-77
2022/06/14 07:50:44;;;;;;;;;;;;;;;18.10;75.25;99176.17;1795592;80;20080;-75
2022/06/14 07:53:29;;;;;;;;;;;;;;;18.25;72.28;99182.73;1763101;81;20116;-76
2022/06/14 07:56:06;;;;;;;;;;;;;;;18.36;73.54;99189.24;1741038;81;20229;-74
2022/06/14 07:58:36;;;;;;;;;;;;;;;18.51;69.79;99185.45;1767800;81;20116;-77
2022/06/14 08:01:10;;;;;;;;;;;;;;;18.66;70.17;99198.98;1768469;81;20452;-78
2022/06/14 08:03:49;;;;;;;;;;;;;;;18.83;67.99;99198.39;1763218;81;20423;-80
2022/06/14 08:06:21;;;;;;;;;;;;;;;18.95;67.59;99199.53;1766403;80;20115;-76
2022/06/14 08:08:51;;;;;;;;;;;;;;;18.86;64.97;99210.16;1768206;81;20068;-77
2022/06/14 08:11:21;;;;;;;;;;;;;;;18.76;66.57;99217.19;1768121;81;20168;-76
2022/06/14 08:13:57;;;;;;;;;;;;;;;18.95;67.18;99213.44;1768326;81;21202;-78
2022/06/14 08:16:24;;;;;;;;;;;;;;;19.26;64.08;99228.87;1777796;80;20419;-82
2022/06/14 08:19:02;;;;;;;;;;;;;;;19.51;61.29;99222.19;1777733;80;20459;-82
2022/06/14 08:21:45;;;;;;;;;;;;;;;19.70;62.30;99219.75;1777713;79;20111;-81
2022/06/14 08:24:17;;;;;;;;;;;;;;;19.91;61.30;99220.53;1777696;80;20179;-73
2022/06/14 08:26:52;;;;;;;;;;;;;;;20.20;61.03;99222.94;1777884;80;21519;-81
2022/06/14 08:29:23;;;;;;;;;;;;;;;20.13;58.38;99225.67;1777151;80;20125;-78
2022/06/14 08:31:56;;;;;;;;;;;;;;;19.76;59.68;99232.94;1777381;79;20091;-81
2022/06/14 08:34:40;;;;;;;;;;;;;;;19.54;61.81;99231.17;1777608;79;20071;-75
2022/06/14 08:37:28;;;;;;;;;;;;;;;19.44;60.49;99236.81;1777730;80;20107;-79
2022/06/14 08:40:03;;;;;;;;;;;;;;;19.32;60.28;99237.08;1776759;80;21122;-74
2022/06/14 08:42:32;;;;;;;;;;;;;;;19.10;59.19;99231.87;1777174;80;20115;-74
2022/06/14 08:45:06;;;;;;;;;;;;;;;18.92;60.75;99234.25;1781456;79;20120;-73
2022/06/14 08:47:40;;;;;;;;;;;;;;;18.80;61.38;99238.08;1825546;78;20426;-73
2022/06/14 08:50:36;;;;;;;;;;;;;;;18.70;62.32;99240.94;1825709;78;20138;-74
2022/06/14 08:53:06;;;;;;;;;;;;;;;18.70;62.16;99242.91;1825890;78;21102;-74
2022/06/14 08:55:45;;;;;;;;;;;;;;;18.68;61.96;99248.85;1825511;78;20117;-73
2022/06/14 08:58:46;;;;;;;;;;;;;;;18.67;61.45;99238.11;1824376;78;20117;-83
2022/06/14 09:01:19;;;;;;;;;;;;;;;18.72;62.80;99240.56;1825478;78;20117;-83
2022/06/14 09:04:23;;;;;;;;;;;;;;;19.16;60.33;99243.46;1794105;78;20090;-77
2022/06/14 09:07:19;;;;;;;;;;;;;;;19.23;59.47;99255.27;1825580;78;21158;-75
2022/06/14 09:10:01;;;;;;;;;;;;;;;19.12;60.19;99250.38;1825256;78;20105;-76
2022/06/14 09:12:51;;;;;;;;;;;;;;;19.09;60.36;99251.13;1825426;78;20114;-74
2022/06/14 09:15:29;;;;;;;;;;;;;;;19.34;58.04;99246.44;1825602;78;20090;-73
2022/06/14 09:18:12;;;;;;;;;;;;;;;19.57;59.30;99247.11;1814641;78;20117;-73
2022/06/14 09:21:12;;;;;;;;;;;;;;;19.74;57.23;99246.45;1825807;78;21693;-71
2022/06/14 09:24:06;;;;;;;;;;;;;;;19.79;56.89;99260.02;1825510;78;20074;-73
2022/06/14 09:26:46;;;;;;;;;;;;;;;19.70;55.58;99258.15;1780005;78;20087;-74
2022/06/14 09:29:22;;;;;;;;;;;;;;;19.62;56.19;99259.88;1791772;78;20492;-79
2022/06/14 09:32:23;;;;;;;;;;;;;;;19.93;55.85;99248.80;1828793;78;20113;-76
2022/06/14 09:35:09;;;;;;;;;;;;;;;20.49;54.75;99249.02;1828834;78;20412;-76
2022/06/14 09:37:59;;;;;;;;;;;;;;;21.01;53.85;99240.09;1828213;78;20090;-79
2022/06/14 09:40:38;;;;;;;;;;;;;;;21.04;50.93;99251.86;1828515;78;20065;-78
2022/06/14 09:43:26;;;;;;;;;;;;;;;20.98;51.34;99244.26;1828956;78;20077;-77
2022/06/14 09:46:23;;;;;;;;;;;;;;;21.17;51.36;99248.72;1828523;78;20448;-74
2022/06/14 09:49:30;;;;;;;;;;;;;;;21.24;50.87;99247.37;1828834;78;21647;-75
2022/06/14 09:52:16;;;;;;;;;;;;;;;21.26;51.12;99242.99;1828641;78;20101;-75
2022/06/14 09:55:07;;;;;;;;;;;;;;;21.20;51.11;99247.33;1828804;78;20078;-75
2022/06/14 09:57:46;;;;;;;;;;;;;;;21.03;49.54;99244.67;1827972;78;20090;-75
2022/06/14 10:00:36;;;;;;;;;;;;;;;20.67;51.03;99249.32;1826322;78;20131;-80
2022/06/14 10:03:35;;;;;;;;;;;;;;;20.51;51.62;99257.79;1769449;79;21872;-76
2022/06/14 10:06:37;;;;;;;;;;;;;;;20.40;51.77;99258.52;1800987;79;20067;-75
2022/06/14 10:09:13;;;;;;;;;;;;;;;20.72;50.13;99246.16;1800705;79;20171;-76
2022/06/14 10:11:48;;;;;;;;;;;;;;;21.22;52.60;99233.02;1800798;79;20214;-75
2022/06/14 10:14:25;;;;;;;;;;;;;;;21.59;49.40;99240.45;1800642;79;20111;-75
2022/06/14 10:17:07;;;;;;;;;;;;;;;21.52;47.66;99233.45;1784032;79;21543;-75
2022/06/14 10:20:10;;;;;;;;;;;;;;;21.18;49.05;99239.95;1770223;79;20764;-77
2022/06/14 10:22:52;;;;;;;;;;;;;;;21.14;51.75;99237.73;1816778;79;20082;-83
2022/06/14 10:25:35;;;;;;;;;;;;;;;21.38;49.84;99242.59;1816766;79;20094;-84
2022/06/14 10:28:11;;;;;;;;;;;;;;;21.75;49.19;99240.06;1817169;78;20114;-78
2022/06/14 10:31:06;;;;;;;;;;;;;;;22.06;47.98;99238.48;1816805;78;21310;-83
2022/06/14 10:33:39;;;;;;;;;;;;;;;22.09;45.81;99244.67;1785104;79;20126;-75
2022/06/14 10:36:43;;;;;;;;;;;;;;;21.80;45.77;99243.06;1816803;79;20129;-80
2022/06/14 10:39:34;;;;;;;;;;;;;;;21.55;46.77;99237.45;1816782;79;20102;-80
2022/06/14 10:42:13;;;;;;;;;;;;;;;21.64;48.29;99233.67;1816744;79;20078;-86
2022/06/14 10:45:10;;;;;;;;;;;;;;;22.12;46.17;99238.27;1814664;78;21123;-81
2022/06/14 10:48:02;;;;;;;;;;;;;;;22.71;45.67;99225.95;1819790;78;20102;-85
2022/06/14 10:50:41;;;;;;;;;;;;;;;23.14;43.54;99224.37;1812519;79;20432;-83
2022/06/14 10:53:12;;;;;;;;;;;;;;;23.33;42.85;99226.67;1810500;79;20418;-79
2022/06/14 10:55:53;;;;;;;;;;;;;;;23.47;45.44;99221.59;1809758;79;20430;-77
2022/06/14 10:58:39;;;;;;;;;;;;;;;23.46;42.40;99220.80;1809268;79;22500;-77
2022/06/14 11:01:18;;;;;;;;;;;;;;;23.35;44.72;99223.66;1809119;79;20126;-77
2022/06/14 11:04:05;;;;;;;;;;;;;;;23.63;43.22;99227.52;1809330;79;20108;-78
2022/06/14 11:07:02;;;;;;;;;;;;;;;24.13;40.15;99222.88;1809599;79;20103;-78
2022/06/14 11:09:42;;;;;;;;;;;;;;;24.44;38.84;99209.77;1735984;82;20124;-78
2022/06/14 11:12:18;;;;;;;;;;;;;;;24.61;39.14;99215.18;1799754;79;21125;-80
2022/06/14 11:14:55;;;;;;;;;;;;;;;24.53;39.89;99206.66;1807173;79;20154;-79
2022/06/14 11:17:27;;;;;;;;;;;;;;;24.55;41.64;99207.03;1809270;79;20091;-81
2022/06/14 11:20:25;;;;;;;;;;;;;;;24.36;39.73;99211.23;1815947;78;20158;-81
2022/06/14 11:23:06;;;;;;;;;;;;;;;24.00;39.25;99218.39;1818108;78;20097;-77
2022/06/14 11:25:53;;;;;;;;;;;;;;;23.55;40.36;99207.77;1793736;79;21136;-79
2022/06/14 11:28:49;;;;;;;;;;;;;;;23.23;40.25;99205.92;1772358;81;20216;-78
2022/06/14 11:31:32;;;;;;;;;;;;;;;23.29;42.29;99209.89;1772324;81;20966;-78
2022/06/14 11:34:16;;;;;;;;;;;;;;;23.72;41.57;99218.02;1772322;81;20145;-80
2022/06/14 11:37:07;;;;;;;;;;;;;;;23.96;40.24;99213.42;1772536;81;20196;-82
2022/06/14 11:39:54;;;;;;;;;;;;;;;23.93;39.13;99215.05;1772623;81;21063;-78
2022/06/14 11:42:45;;;;;;;;;;;;;;;24.00;39.22;99214.19;1772462;81;20201;-78
2022/06/14 11:45:15;;;;;;;;;;;;;;;24.27;37.87;99201.11;1769271;81;20475;-76
2022/06/14 11:47:52;;;;;;;;;;;;;;;24.22;37.91;99195.95;1767874;81;20664;-77
2022/06/14 11:50:41;;;;;;;;;;;;;;;23.91;37.01;99210.45;1768073;81;20110;-80
2022/06/14 11:53:24;;;;;;;;;;;;;;;23.47;37.95;99222.99;1766878;81;20149;-77
2022/06/14 11:56:17;;;;;;;;;;;;;;;23.33;38.06;99195.27;1758655;81;20635;-76
2022/06/14 11:59:01;;;;;;;;;;;;;;;23.32;39.05;99221.67;1756821;81;20190;-83
2022/06/14 12:02:00;;;;;;;;;;;;;;;23.28;38.51;99220.10;1754772;81;20170;-80
2022/06/14 12:04:36;;;;;;;;;;;;;;;23.46;37.54;99212.39;1755739;81;20484;-82
2022/06/14 12:07:15;;;;;;;;;;;;;;;23.86;37.06;99210.09;1755585;81;21817;-77
2022/06/14 12:10:19;;;;;;;;;;;;;;;23.86;36.32;99217.11;1755419;81;20501;-81
2022/06/14 12:12:52;;;;;;;;;;;;;;;23.59;37.27;99221.14;1757865;81;20082;-76
2022/06/14 12:15:42;;;;;;;;;;;;;;;23.51;38.20;99220.36;1757384;81;20082;-80
2022/06/14 12:18:09;;;;;;;;;;;;;;;23.68;38.20;99214.47;1757749;81;20118;-82
2022/06/14 12:20:49;;;;;;;;;;;;;;;24.20;38.21;99206.79;1757604;81;21245;-82
2022/06/14 12:23:26;;;;;;;;;;;;;;;24.69;34.28;99217.30;1729850;81;20082;-80
2022/06/14 12:28:59;;;;;;;;;;;;;;;24.77;32.91;99203.38;1757943;81;20071;-77
2022/06/14 12:31:35;;;;;;;;;;;;;;;24.28;34.79;99209.72;1757654;81;20095;-78
2022/06/14 12:34:12;;;;;;;;;;;;;;;23.89;35.05;99223.29;1755917;81;21873;-77
2022/06/14 12:37:02;;;;;;;;;;;;;;;23.81;34.75;99218.95;1740578;81;20145;-77
2022/06/14 12:39:38;;;;;;;;;;;;;;;24.05;35.43;99227.76;1759588;80;20094;-81
2022/06/14 12:42:08;;;;;;;;;;;;;;;24.42;34.64;99215.78;1742960;81;20798;-76
2022/06/14 12:44:53;;;;;;;;;;;;;;;24.84;35.04;99215.13;1754679;79;20110;-78
2022/06/14 12:47:26;;;;;;;;;;;;;;;25.25;34.50;99215.78;1762540;81;21243;-79
2022/06/14 12:49:55;;;;;;;;;;;;;;;25.58;32.89;99221.71;1771218;81;20476;-76
2022/06/14 12:52:26;;;;;;;;;;;;;;;25.78;34.02;99209.19;1773315;81;20410;-85
2022/06/14 12:55:07;;;;;;;;;;;;;;;25.98;31.78;99215.69;1773185;81;20093;-77
2022/06/14 12:57:40;;;;;;;;;;;;;;;25.94;32.74;99229.01;1766383;81;20429;-76
2022/06/14 13:00:35;;;;;;;;;;;;;;;25.80;32.78;99221.59;1773209;81;21132;-79
2022/06/14 13:03:22;;;;;;;;;;;;;;;25.39;32.09;99219.61;1731967;81;20210;-78
2022/06/14 13:05:53;;;;;;;;;;;;;;;24.84;31.70;99231.33;1772821;81;20122;-77
2022/06/14 13:08:32;;;;;;;;;;;;;;;24.26;32.92;99233.17;1773001;81;20090;-79
2022/06/14 13:11:20;;;;;;;;;;;;;;;23.79;33.79;99238.98;1750705;80;20124;-78
2022/06/14 13:14:03;;;;;;;;;;;;;;;23.60;35.39;99229.73;1750122;81;21790;-78
2022/06/14 13:16:45;;;;;;;;;;;;;;;23.67;34.63;99226.28;1743143;82;20435;-77
2022/06/14 13:19:21;;;;;;;;;;;;;;;23.85;35.97;99230.33;1743238;82;20116;-76
2022/06/14 13:21:58;;;;;;;;;;;;;;;24.11;33.92;99220.50;1743153;82;20112;-77
2022/06/14 13:24:37;;;;;;;;;;;;;;;24.03;34.01;99237.98;1742958;82;20104;-79
2022/06/14 13:27:17;;;;;;;;;;;;;;;24.02;31.94;99222.98;1761282;81;21785;-78
2022/06/14 13:30:10;;;;;;;;;;;;;;;24.03;31.52;99233.78;1742679;82;20096;-78
2022/06/14 13:33:00;;;;;;;;;;;;;;;24.22;30.40;99242.23;1743017;82;20096;-79
2022/06/14 13:35:54;;;;;;;;;;;;;;;24.57;29.69;99229.06;1713546;82;20113;-78
2022/06/14 13:38:43;;;;;;;;;;;;;;;24.75;31.40;99232.47;1743636;82;20141;-79
2022/06/14 13:41:15;;;;;;;;;;;;;;;25.12;29.87;99223.80;1742652;82;21381;-80
2022/06/14 13:43:58;;;;;;;;;;;;;;;25.29;29.85;99227.77;1743425;82;20454;-72
2022/06/14 13:46:28;;;;;;;;;;;;;;;25.24;28.88;99235.88;1763934;80;20110;-78
2022/06/14 13:49:04;;;;;;;;;;;;;;;25.16;29.83;99221.13;1767959;81;20090;-76
2022/06/14 13:51:46;;;;;;;;;;;;;;;25.31;29.42;99227.34;1768711;81;20453;-75
2022/06/14 13:54:27;;;;;;;;;;;;;;;25.60;28.28;99230.52;1775547;79;21796;-76